Time;durP1;ratioP1;P1;durP2;ratioP2;P2;SDS_P1;SDS_P2;PMS_P1;PMS_P2;Temp;Humidity;BMP_temperature;BMP_pressure;BME280_temperature;BME280_humidity;BME280_pressure;Samples;Min_cycle;Max_cycle;Signal;HPM_P1;HPM_P2
2023/03/23 06:22:41;;;;;;;1.50;1.10;;;12.70;98.20;;;;;;5060098;28;20476;-82
2023/03/23 06:25:10;;;;;;;1.50;1.03;;;12.70;98.20;;;;;;5081797;28;20492;-80
2023/03/23 06:27:38;;;;;;;1.50;1.10;;;12.80;98.20;;;;;;5086803;28;20476;-82
2023/03/23 06:30:06;;;;;;;1.50;1.10;;;12.80;98.20;;;;;;5104002;28;20465;-81
2023/03/23 06:32:34;;;;;;;1.57;1.27;;;12.80;98.20;;;;;;5082285;28;20476;-81
2023/03/23 06:35:01;;;;;;;1.50;1.00;;;12.90;98.20;;;;;;5075465;28;20608;-79
2023/03/23 06:37:27;;;;;;;1.50;1.10;;;12.90;98.20;;;;;;5062757;28;20979;-80
2023/03/23 06:39:56;;;;;;;1.53;1.20;;;12.90;98.20;;;;;;5075714;28;20468;-81
2023/03/23 06:42:24;;;;;;;1.50;1.10;;;12.90;98.20;;;;;;5066898;28;20782;-81
2023/03/23 06:44:51;;;;;;;1.53;1.00;;;13.00;98.20;;;;;;5074450;28;20807;-79
2023/03/23 06:47:18;;;;;;;1.53;1.07;;;13.00;98.20;;;;;;5056920;28;20504;-79
2023/03/23 06:49:44;;;;;;;1.57;1.10;;;13.00;98.20;;;;;;5076660;28;20935;-81
2023/03/23 06:52:11;;;;;;;1.50;1.10;;;13.00;98.20;;;;;;5071845;28;20570;-80
2023/03/23 06:54:38;;;;;;;1.50;1.00;;;13.10;98.20;;;;;;5080250;28;20766;-80
2023/03/23 06:57:06;;;;;;;1.50;1.00;;;13.10;98.20;;;;;;5067670;28;20481;-79
2023/03/23 06:59:33;;;;;;;1.50;1.10;;;13.10;98.20;;;;;;5077421;28;20456;-81
2023/03/23 07:02:00;;;;;;;1.50;1.00;;;13.10;98.20;;;;;;5066353;28;20485;-79
2023/03/23 07:04:27;;;;;;;1.50;1.00;;;13.10;98.20;;;;;;5079227;28;20487;-80
2023/03/23 07:06:54;;;;;;;1.50;1.00;;;13.20;98.20;;;;;;5068294;28;20481;-81
2023/03/23 07:09:21;;;;;;;1.50;1.00;;;13.20;98.20;;;;;;5076537;28;20481;-78
2023/03/23 07:11:48;;;;;;;1.50;1.10;;;13.20;98.20;;;;;;5061909;28;20514;-79
2023/03/23 07:14:16;;;;;;;1.57;1.10;;;13.20;98.20;;;;;;5071338;28;20607;-80
2023/03/23 07:16:43;;;;;;;1.50;1.00;;;13.20;98.20;;;;;;5068543;28;20548;-79
2023/03/23 07:19:10;;;;;;;1.53;1.10;;;13.30;98.20;;;;;;5076578;28;20461;-81
2023/03/23 07:21:37;;;;;;;1.57;1.17;;;13.30;98.20;;;;;;5065674;28;20574;-79
2023/03/23 07:24:04;;;;;;;1.53;1.00;;;13.30;98.20;;;;;;5074222;28;20461;-79
2023/03/23 07:26:31;;;;;;;1.57;1.10;;;13.30;98.20;;;;;;5067725;28;20883;-79
2023/03/23 07:28:58;;;;;;;1.50;1.07;;;13.40;98.20;;;;;;5076581;28;20452;-79
2023/03/23 07:31:26;;;;;;;1.50;1.10;;;13.40;98.20;;;;;;5066859;28;20849;-79
2023/03/23 07:33:53;;;;;;;1.60;1.00;;;13.40;98.20;;;;;;5070376;28;20453;-79
2023/03/23 07:36:20;;;;;;;1.50;1.10;;;13.40;98.20;;;;;;5064486;28;20480;-80
2023/03/23 07:38:48;;;;;;;1.50;1.10;;;13.50;98.20;;;;;;5070851;28;20835;-80
2023/03/23 07:41:14;;;;;;;1.50;1.10;;;13.50;98.20;;;;;;5068931;28;20481;-80
2023/03/23 07:43:42;;;;;;;1.50;1.00;;;13.50;98.20;;;;;;5074396;28;20522;-79
2023/03/23 07:46:08;;;;;;;1.50;1.00;;;13.50;98.20;;;;;;5063083;28;20600;-80
2023/03/23 07:48:37;;;;;;;1.50;1.00;;;13.60;98.20;;;;;;5072161;28;20458;-80
2023/03/23 07:51:05;;;;;;;1.50;1.10;;;13.60;98.20;;;;;;5062606;28;20515;-79
2023/03/23 07:53:31;;;;;;;1.50;0.97;;;13.60;98.20;;;;;;5073643;28;20464;-80
2023/03/23 07:55:58;;;;;;;1.50;1.10;;;13.70;98.20;;;;;;5063782;28;20540;-80
2023/03/23 07:58:26;;;;;;;1.50;1.10;;;13.70;98.20;;;;;;5072853;28;21082;-80
2023/03/23 08:00:53;;;;;;;1.50;1.10;;;13.80;98.20;;;;;;5063860;28;20457;-81
2023/03/23 08:03:20;;;;;;;1.60;1.50;;;13.80;98.20;;;;;;5069193;28;20467;-81
2023/03/23 08:05:49;;;;;;;1.50;1.03;;;13.80;98.20;;;;;;5071233;28;20516;-80
2023/03/23 08:08:16;;;;;;;1.50;1.00;;;13.80;98.20;;;;;;5043057;28;21031;-79
2023/03/23 08:10:43;;;;;;;1.50;0.90;;;13.80;98.20;;;;;;5070673;28;20468;-79
2023/03/23 08:13:10;;;;;;;1.50;1.10;;;13.90;98.20;;;;;;5060870;28;20477;-79
2023/03/23 08:15:37;;;;;;;1.57;1.10;;;13.90;98.20;;;;;;5070380;28;20462;-79
2023/03/23 08:18:05;;;;;;;1.50;1.10;;;14.00;98.20;;;;;;5062546;28;20481;-79
2023/03/23 08:20:32;;;;;;;1.50;1.00;;;14.00;98.20;;;;;;5074809;28;20468;-79
2023/03/23 08:23:02;;;;;;;1.50;1.00;;;14.10;98.20;;;;;;5058350;28;20873;-80
2023/03/23 08:25:31;;;;;;;1.60;1.27;;;14.10;98.20;;;;;;5070300;28;20580;-80
2023/03/23 08:27:58;;;;;;;1.50;1.00;;;14.10;98.20;;;;;;5062817;28;20944;-81
2023/03/23 08:30:26;;;;;;;1.50;1.20;;;14.20;98.20;;;;;;5073650;28;20516;-81
2023/03/23 08:32:53;;;;;;;1.53;1.10;;;14.20;98.20;;;;;;5057917;28;20644;-79
2023/03/23 08:35:21;;;;;;;1.50;1.10;;;14.20;98.20;;;;;;5070238;28;20454;-82
2023/03/23 08:37:51;;;;;;;1.50;1.00;;;14.30;98.20;;;;;;5061551;28;20573;-79
2023/03/23 08:40:22;;;;;;;1.50;1.00;;;14.40;98.20;;;;;;5071779;28;20971;-79
2023/03/23 08:42:50;;;;;;;4.60;4.10;;;14.40;98.20;;;;;;5057952;28;20590;-81
2023/03/23 08:45:18;;;;;;;1.50;1.00;;;14.50;98.20;;;;;;5075534;28;20836;-81
2023/03/23 08:47:46;;;;;;;1.50;1.03;;;14.50;98.20;;;;;;5060902;28;20915;-80
2023/03/23 08:50:15;;;;;;;1.53;1.10;;;14.50;98.20;;;;;;5077395;28;20476;-78
2023/03/23 08:52:43;;;;;;;1.50;1.00;;;14.60;98.20;;;;;;5064386;28;20495;-80
2023/03/23 08:55:10;;;;;;;1.50;1.00;;;14.70;98.20;;;;;;5073418;28;20457;-80
2023/03/23 08:57:40;;;;;;;1.57;1.20;;;14.80;98.20;;;;;;5057917;28;20485;-79
2023/03/23 09:00:14;;;;;;;1.60;1.10;;;14.90;98.20;;;;;;5071445;28;20461;-77
2023/03/23 09:02:41;;;;;;;1.60;1.13;;;14.90;98.20;;;;;;5061999;28;20872;-76
2023/03/23 09:05:10;;;;;;;1.50;1.00;;;15.00;98.20;;;;;;5073705;28;20468;-76
2023/03/23 09:07:36;;;;;;;1.50;1.10;;;15.10;98.20;;;;;;5061798;28;20875;-77
2023/03/23 09:10:04;;;;;;;1.50;1.00;;;15.10;98.20;;;;;;5070471;28;20461;-77
2023/03/23 09:12:30;;;;;;;1.50;1.10;;;15.10;98.20;;;;;;5056164;28;20476;-77
2023/03/23 09:14:59;;;;;;;1.53;1.10;;;15.10;98.20;;;;;;5067370;28;20457;-76
2023/03/23 09:17:25;;;;;;;1.50;1.00;;;15.20;98.20;;;;;;5059950;28;20651;-78
2023/03/23 09:19:52;;;;;;;1.50;0.90;;;15.20;98.20;;;;;;5069770;28;20461;-79
2023/03/23 09:22:23;;;;;;;1.50;1.00;;;15.30;98.20;;;;;;5059232;28;20512;-78
2023/03/23 09:24:50;;;;;;;1.53;1.10;;;15.30;98.20;;;;;;5066479;28;20457;-77
2023/03/23 09:27:16;;;;;;;1.53;0.97;;;15.30;98.20;;;;;;5059829;28;20493;-77
2023/03/23 09:29:45;;;;;;;1.53;1.20;;;15.40;98.20;;;;;;5067455;28;20461;-77
2023/03/23 09:32:14;;;;;;;1.57;1.10;;;15.40;98.20;;;;;;5059350;28;20481;-78
2023/03/23 09:34:41;;;;;;;1.60;1.00;;;15.30;98.20;;;;;;5066783;28;20472;-80
2023/03/23 09:37:09;;;;;;;1.50;1.00;;;15.30;98.20;;;;;;5060253;28;20488;-78
2023/03/23 09:39:36;;;;;;;1.50;1.00;;;15.30;97.80;;;;;;5067233;28;20524;-79
2023/03/23 09:42:30;;;;;;;1.50;1.10;;;15.30;98.20;;;;;;5058567;28;20481;-77
2023/03/23 09:45:10;;;;;;;1.53;1.20;;;15.30;98.20;;;;;;5065496;28;20477;-77
2023/03/23 09:47:48;;;;;;;1.50;1.00;;;15.30;97.70;;;;;;5055339;28;21103;-78
2023/03/23 09:50:18;;;;;;;1.50;0.90;;;15.20;97.70;;;;;;5069899;28;20827;-77
2023/03/23 09:52:48;;;;;;;1.50;1.00;;;15.20;98.10;;;;;;5055811;28;20481;-77
2023/03/23 09:55:18;;;;;;;1.93;1.73;;;15.10;98.20;;;;;;5067398;28;20461;-77
2023/03/23 09:57:52;;;;;;;1.57;1.00;;;15.10;98.20;;;;;;5061169;28;21023;-79
2023/03/23 10:00:24;;;;;;;1.50;1.00;;;15.10;98.20;;;;;;5072551;28;20452;-79
2023/03/23 10:03:01;;;;;;;1.50;1.00;;;15.10;98.20;;;;;;5061962;28;20908;-79
2023/03/23 10:05:33;;;;;;;1.50;1.10;;;15.10;98.20;;;;;;5069568;28;20930;-77
2023/03/23 10:08:00;;;;;;;1.53;1.10;;;15.20;98.20;;;;;;5058569;28;20513;-77
2023/03/23 10:10:40;;;;;;;1.50;1.00;;;15.30;98.20;;;;;;5072562;28;20472;-77
2023/03/23 10:13:16;;;;;;;1.50;1.00;;;15.30;98.20;;;;;;5058431;28;20484;-77
2023/03/23 10:15:44;;;;;;;1.50;1.00;;;15.40;98.20;;;;;;5066919;28;20951;-78
2023/03/23 10:18:18;;;;;;;1.50;1.00;;;15.40;98.20;;;;;;5055718;28;20473;-78
2023/03/23 10:20:49;;;;;;;1.50;1.00;;;15.40;98.20;;;;;;5068762;28;20736;-77
2023/03/23 10:23:48;;;;;;;1.50;1.00;;;15.30;98.20;;;;;;5039061;28;20477;-77
2023/03/23 10:26:34;;;;;;;1.57;1.00;;;15.30;98.20;;;;;;5053113;28;20480;-77
2023/03/23 10:29:13;;;;;;;1.50;1.00;;;15.20;98.20;;;;;;5065859;28;20484;-77
2023/03/23 10:31:44;;;;;;;1.53;1.10;;;15.10;98.20;;;;;;5055856;28;20485;-78
2023/03/23 10:34:17;;;;;;;1.50;0.97;;;15.10;98.20;;;;;;5067092;28;20845;-77
2023/03/23 10:36:57;;;;;;;1.50;1.10;;;15.00;98.20;;;;;;5055837;28;20908;-77
2023/03/23 10:39:28;;;;;;;1.50;1.00;;;14.90;98.20;;;;;;5072881;28;20461;-77
2023/03/23 10:41:55;;;;;;;1.50;1.10;;;14.80;98.20;;;;;;5065409;28;20481;-77
2023/03/23 10:44:25;;;;;;;1.50;1.00;;;14.60;98.20;;;;;;5071220;28;20457;-77
2023/03/23 10:46:57;;;;;;;1.50;1.00;;;14.30;98.20;;;;;;5059557;28;20880;-77
2023/03/23 10:49:28;;;;;;;1.53;1.20;;;14.10;98.20;;;;;;5072163;28;20492;-78
2023/03/23 10:52:00;;;;;;;1.50;1.00;;;13.90;98.20;;;;;;5058424;28;20477;-78
2023/03/23 10:54:33;;;;;;;1.50;1.10;;;13.70;98.20;;;;;;5070527;28;20453;-78
2023/03/23 10:57:00;;;;;;;1.50;0.90;;;13.60;98.20;;;;;;5059538;28;20486;-79
2023/03/23 10:59:32;;;;;;;1.50;1.10;;;13.40;98.20;;;;;;5072783;28;20464;-79
2023/03/23 11:02:03;;;;;;;1.50;1.10;;;13.30;98.20;;;;;;5060690;28;20477;-78
2023/03/23 11:04:32;;;;;;;1.50;1.03;;;13.30;98.20;;;;;;5065812;28;20461;-78
2023/03/23 11:07:02;;;;;;;1.50;1.10;;;13.30;98.20;;;;;;5055287;28;20496;-78
2023/03/23 11:09:37;;;;;;;1.50;1.00;;;13.20;98.20;;;;;;5069183;28;20863;-77
2023/03/23 11:12:04;;;;;;;1.50;1.10;;;13.20;98.20;;;;;;5055777;28;20484;-77
2023/03/23 11:14:34;;;;;;;1.50;1.00;;;13.30;98.20;;;;;;5065864;28;20473;-79
2023/03/23 11:17:02;;;;;;;1.50;1.00;;;13.30;98.20;;;;;;5058509;28;20489;-78
2023/03/23 11:19:32;;;;;;;1.50;1.00;;;13.30;98.20;;;;;;5068678;28;20464;-78
2023/03/23 11:22:07;;;;;;;1.50;1.10;;;13.30;98.20;;;;;;5056028;28;20485;-79
2023/03/23 11:24:36;;;;;;;1.50;1.00;;;13.20;98.20;;;;;;5065455;28;20457;-79
2023/03/23 11:27:06;;;;;;;1.50;1.10;;;13.10;98.20;;;;;;5055255;28;20478;-78
2023/03/23 11:29:34;;;;;;;1.50;1.07;;;13.00;98.20;;;;;;5068608;28;20464;-79
2023/03/23 11:32:07;;;;;;;1.50;1.00;;;13.00;98.20;;;;;;5054046;28;20481;-78
2023/03/23 11:34:41;;;;;;;1.50;1.00;;;13.00;98.20;;;;;;5065429;28;20549;-78
2023/03/23 11:37:12;;;;;;;1.50;1.13;;;13.00;98.20;;;;;;5055239;28;20990;-78
2023/03/23 11:39:48;;;;;;;1.50;1.00;;;13.00;98.20;;;;;;5067543;28;20471;-81
2023/03/23 11:44:51;;;;;;;1.50;1.10;;;13.00;98.20;;;;;;5048066;28;20906;-73
2023/03/23 11:47:23;;;;;;;1.50;1.10;;;13.00;98.20;;;;;;5029524;28;21055;-74
2023/03/23 11:49:59;;;;;;;1.50;1.00;;;13.00;98.20;;;;;;5046204;28;20462;-74
2023/03/23 11:52:41;;;;;;;1.50;1.13;;;13.10;98.20;;;;;;5039592;28;20996;-73
2023/03/23 11:55:14;;;;;;;1.50;1.10;;;13.20;98.20;;;;;;5035641;28;20876;-74
2023/03/23 11:57:42;;;;;;;1.50;1.10;;;13.30;98.20;;;;;;5017995;28;20506;-74
2023/03/23 12:00:15;;;;;;;1.50;1.00;;;13.40;98.20;;;;;;5032000;28;20467;-74
2023/03/23 12:03:06;;;;;;;1.50;1.10;;;13.40;98.20;;;;;;5022898;28;21020;-73
2023/03/23 12:05:47;;;;;;;1.50;1.10;;;13.50;98.20;;;;;;5034590;28;21106;-73
2023/03/23 12:08:43;;;;;;;1.50;1.10;;;13.80;98.20;;;;;;5018733;28;20499;-75
2023/03/23 12:11:19;;;;;;;1.50;1.10;;;14.10;98.20;;;;;;5018687;28;20878;-75
2023/03/23 12:14:00;;;;;;;1.50;1.10;;;14.40;98.20;;;;;;5035417;28;20711;-74
2023/03/23 12:16:39;;;;;;;1.60;1.00;;;14.60;98.20;;;;;;5020838;28;20510;-74
2023/03/23 12:19:13;;;;;;;1.50;0.90;;;14.80;98.20;;;;;;5034248;28;20458;-74
2023/03/23 12:21:52;;;;;;;1.53;1.00;;;14.90;98.20;;;;;;5021935;28;20621;-73
2023/03/23 12:24:32;;;;;;;1.53;1.00;;;14.90;98.20;;;;;;5034372;28;20478;-73
2023/03/23 12:27:05;;;;;;;1.53;1.00;;;15.10;98.20;;;;;;5023577;28;20510;-74
2023/03/23 12:29:52;;;;;;;1.53;1.00;;;15.30;98.20;;;;;;5036790;28;20458;-74
2023/03/23 12:32:32;;;;;;;1.53;1.00;;;15.60;98.20;;;;;;5026918;28;20474;-74
2023/03/23 12:35:18;;;;;;;1.50;1.00;;;16.00;98.20;;;;;;5036981;28;20471;-75
2023/03/23 12:37:57;;;;;;;1.50;0.90;;;16.30;98.20;;;;;;5022074;28;20486;-74
2023/03/23 12:40:45;;;;;;;1.50;0.90;;;16.50;98.20;;;;;;5034696;28;20695;-74
2023/03/23 12:43:18;;;;;;;1.53;0.90;;;16.60;98.20;;;;;;5022696;28;20489;-74
2023/03/23 12:46:03;;;;;;;1.50;0.90;;;16.70;98.20;;;;;;5039051;28;20536;-74
2023/03/23 12:48:34;;;;;;;1.50;0.90;;;16.80;98.20;;;;;;5022274;28;20490;-74
2023/03/23 12:51:09;;;;;;;1.53;1.10;;;16.90;98.20;;;;;;5023609;28;20474;-74
2023/03/23 12:53:45;;;;;;;1.50;1.03;;;16.90;98.20;;;;;;5041301;28;20489;-74
2023/03/23 12:56:17;;;;;;;1.50;0.90;;;16.70;98.20;;;;;;5022817;28;20488;-73
2023/03/23 12:58:47;;;;;;;1.50;1.00;;;16.60;98.20;;;;;;5029922;28;20821;-73
2023/03/23 13:01:21;;;;;;;1.50;1.00;;;16.40;98.20;;;;;;5017114;28;20485;-73
2023/03/23 13:03:53;;;;;;;1.50;1.00;;;16.20;98.20;;;;;;5030508;28;20490;-74
2023/03/23 13:06:26;;;;;;;1.57;1.00;;;15.90;98.20;;;;;;5017374;28;20475;-73
2023/03/23 13:08:59;;;;;;;1.50;0.97;;;15.70;98.20;;;;;;5030111;28;20474;-71
2023/03/23 13:11:33;;;;;;;1.50;1.00;;;15.60;98.20;;;;;;5021460;28;20484;-72
2023/03/23 13:14:10;;;;;;;1.57;1.00;;;15.50;98.20;;;;;;5037605;28;20596;-72
2023/03/23 13:16:42;;;;;;;1.50;1.00;;;15.40;98.20;;;;;;5025538;28;20847;-71
2023/03/23 13:19:17;;;;;;;1.50;0.90;;;15.30;98.20;;;;;;5038568;28;20473;-74
2023/03/23 13:21:48;;;;;;;1.50;1.00;;;15.30;98.20;;;;;;5019256;28;20495;-71
2023/03/23 13:24:20;;;;;;;1.50;1.10;;;15.30;98.20;;;;;;5030117;28;20860;-71
2023/03/23 13:26:48;;;;;;;1.50;1.00;;;15.30;98.20;;;;;;5018427;28;20806;-76
2023/03/23 13:29:18;;;;;;;1.60;1.20;;;15.30;98.20;;;;;;5036848;28;20517;-73
2023/03/23 13:31:46;;;;;;;1.53;1.00;;;15.30;98.20;;;;;;5028689;28;20482;-73
2023/03/23 13:34:18;;;;;;;1.50;1.00;;;15.30;98.20;;;;;;5039792;28;20484;-73
2023/03/23 13:36:55;;;;;;;1.50;1.00;;;15.30;98.20;;;;;;5024273;28;21074;-73
2023/03/23 13:39:27;;;;;;;1.57;1.10;;;15.30;98.20;;;;;;5033351;28;20486;-73
2023/03/23 13:42:04;;;;;;;1.50;1.00;;;15.30;98.20;;;;;;5024784;28;20867;-72
2023/03/23 13:44:45;;;;;;;1.53;1.00;;;15.30;98.20;;;;;;5030520;28;20806;-72
2023/03/23 13:47:26;;;;;;;1.50;1.00;;;15.20;98.20;;;;;;5018831;28;20543;-72
2023/03/23 13:49:56;;;;;;;1.50;1.00;;;15.20;98.20;;;;;;5030447;28;20508;-72
2023/03/23 13:52:26;;;;;;;1.50;0.97;;;15.10;98.20;;;;;;5021196;28;20485;-74
2023/03/23 13:55:18;;;;;;;1.50;1.00;;;15.10;98.20;;;;;;5031353;28;20964;-75
2023/03/23 13:57:53;;;;;;;1.50;1.00;;;15.00;98.20;;;;;;5026233;28;20478;-75
2023/03/23 14:00:36;;;;;;;1.50;1.10;;;14.80;98.20;;;;;;5033398;28;20777;-75
2023/03/23 14:03:05;;;;;;;1.53;1.10;;;14.70;98.20;;;;;;5025613;28;20638;-75
2023/03/23 14:05:35;;;;;;;1.53;1.10;;;14.60;98.20;;;;;;5031221;28;20760;-77
2023/03/23 14:08:10;;;;;;;1.57;1.10;;;14.50;98.20;;;;;;5024394;28;20478;-73
2023/03/23 14:10:41;;;;;;;1.50;1.10;;;14.50;98.20;;;;;;5033207;28;20975;-73
2023/03/23 14:13:18;;;;;;;1.57;1.00;;;14.60;98.20;;;;;;5033043;28;20486;-72
2023/03/23 14:15:55;;;;;;;1.50;1.10;;;14.60;98.20;;;;;;5024395;28;20463;-72
2023/03/23 14:18:24;;;;;;;1.50;1.00;;;14.60;98.20;;;;;;5023092;28;20481;-72
2023/03/23 14:20:51;;;;;;;1.50;1.00;;;14.60;98.20;;;;;;5022193;28;20457;-73
2023/03/23 14:23:20;;;;;;;1.50;1.00;;;14.70;98.20;;;;;;5039269;28;20482;-72
2023/03/23 14:26:04;;;;;;;1.50;1.00;;;14.70;98.20;;;;;;5025965;28;20901;-73
2023/03/23 14:28:32;;;;;;;1.50;1.10;;;14.90;98.20;;;;;;5043313;28;20482;-72
2023/03/23 14:31:00;;;;;;;1.50;1.00;;;15.10;98.20;;;;;;5026710;28;20470;-73
2023/03/23 14:33:28;;;;;;;1.50;1.10;;;15.30;98.20;;;;;;5033830;28;20532;-72
2023/03/23 14:35:57;;;;;;;1.50;1.00;;;15.40;98.20;;;;;;5024527;28;20466;-72
2023/03/23 14:38:28;;;;;;;1.53;1.00;;;15.40;98.20;;;;;;5043845;28;20539;-73
2023/03/23 14:41:02;;;;;;;1.50;1.00;;;15.30;98.20;;;;;;5022670;28;20462;-76
2023/03/23 14:43:30;;;;;;;1.50;0.90;;;15.20;98.20;;;;;;5040324;28;20482;-76
2023/03/23 14:45:59;;;;;;;1.50;1.00;;;15.10;98.20;;;;;;5025986;28;20842;-72
2023/03/23 14:48:27;;;;;;;1.50;1.03;;;15.00;98.20;;;;;;5035771;28;20487;-75
2023/03/23 14:50:58;;;;;;;1.50;1.00;;;15.00;98.20;;;;;;5029533;28;20546;-73
2023/03/23 14:53:26;;;;;;;1.50;0.97;;;14.90;98.20;;;;;;5040595;28;20835;-73
2023/03/23 14:55:56;;;;;;;1.50;1.00;;;14.90;98.20;;;;;;5018727;28;20974;-75
2023/03/23 14:58:24;;;;;;;1.60;1.10;;;14.80;98.20;;;;;;5028062;28;20455;-79
2023/03/23 15:00:56;;;;;;;1.50;1.00;;;14.70;98.20;;;;;;5015551;28;20555;-75
2023/03/23 15:03:24;;;;;;;1.50;1.00;;;14.70;98.20;;;;;;5019017;28;20911;-74
2023/03/23 15:05:55;;;;;;;1.50;1.00;;;14.60;98.20;;;;;;5011079;28;20980;-74
2023/03/23 15:08:29;;;;;;;1.50;0.97;;;14.60;98.20;;;;;;5036977;28;20494;-75
2023/03/23 15:11:05;;;;;;;1.50;1.00;;;14.60;98.20;;;;;;5022676;28;20470;-76
2023/03/23 15:13:33;;;;;;;1.50;1.00;;;14.60;98.20;;;;;;5040568;28;20561;-76
2023/03/23 15:16:12;;;;;;;1.50;1.10;;;14.70;98.20;;;;;;5020385;28;21043;-74
2023/03/23 15:18:41;;;;;;;1.50;1.00;;;15.00;98.20;;;;;;5039728;28;20532;-73
2023/03/23 15:21:19;;;;;;;1.50;1.10;;;15.20;98.20;;;;;;5024416;28;21005;-73
2023/03/23 15:24:06;;;;;;;1.50;1.00;;;15.50;98.20;;;;;;5029970;28;20739;-73
2023/03/23 15:26:44;;;;;;;1.50;1.10;;;15.60;98.20;;;;;;5021869;28;20921;-74
2023/03/23 15:29:18;;;;;;;1.53;1.00;;;15.80;98.20;;;;;;5035504;28;20497;-73
2023/03/23 15:31:47;;;;;;;1.53;1.00;;;15.90;98.20;;;;;;5025570;28;20536;-74
2023/03/23 15:34:25;;;;;;;1.50;1.00;;;15.90;98.20;;;;;;5037403;28;20501;-74
2023/03/23 15:36:56;;;;;;;1.53;1.00;;;15.90;98.20;;;;;;5019505;28;20482;-73
2023/03/23 15:39:23;;;;;;;1.53;1.00;;;16.00;98.20;;;;;;5028625;28;21028;-74
2023/03/23 15:41:53;;;;;;;1.50;1.00;;;16.00;98.20;;;;;;5024591;28;20577;-74
2023/03/23 15:44:31;;;;;;;1.50;1.10;;;15.90;98.20;;;;;;5034579;28;20497;-72
2023/03/23 15:47:17;;;;;;;1.50;0.90;;;15.90;98.20;;;;;;5024370;28;20486;-73
2023/03/23 15:49:46;;;;;;;1.50;0.90;;;15.90;98.20;;;;;;5031398;28;20849;-72
2023/03/23 15:52:14;;;;;;;1.50;1.13;;;15.80;98.20;;;;;;5030715;28;20993;-74
2023/03/23 15:54:47;;;;;;;1.50;1.00;;;15.70;98.20;;;;;;5029193;28;20467;-74
2023/03/23 15:57:16;;;;;;;1.53;1.00;;;15.70;98.20;;;;;;5027988;28;20833;-76
2023/03/23 15:59:42;;;;;;;1.60;1.10;;;15.70;98.20;;;;;;5033226;28;20454;-74
2023/03/23 16:02:21;;;;;;;1.57;1.10;;;15.70;98.20;;;;;;5028747;28;20482;-73
2023/03/23 16:04:48;;;;;;;1.50;1.00;;;15.70;98.20;;;;;;5035504;28;20454;-75
2023/03/23 16:07:15;;;;;;;1.50;1.00;;;15.80;98.20;;;;;;5031642;28;20575;-74
2023/03/23 16:09:43;;;;;;;1.50;1.00;;;15.80;98.20;;;;;;5034011;28;20483;-73
2023/03/23 16:12:13;;;;;;;1.50;1.00;;;15.80;98.20;;;;;;5020773;28;20486;-73
2023/03/23 16:14:41;;;;;;;1.60;1.20;;;15.80;98.20;;;;;;5037523;28;20587;-74
2023/03/23 16:17:12;;;;;;;1.53;1.00;;;15.80;98.20;;;;;;5015753;28;20491;-74
2023/03/23 16:19:39;;;;;;;1.50;1.07;;;15.80;98.20;;;;;;5028743;28;20478;-72
2023/03/23 16:22:06;;;;;;;1.50;0.90;;;15.80;98.20;;;;;;5020370;28;20486;-73
2023/03/23 16:24:33;;;;;;;1.50;1.07;;;15.80;98.20;;;;;;5032032;28;20487;-74
2023/03/23 16:27:00;;;;;;;1.50;1.03;;;15.90;98.20;;;;;;5025515;28;20606;-74
2023/03/23 16:29:27;;;;;;;1.53;1.10;;;15.80;98.20;;;;;;5033487;28;21001;-74
2023/03/23 16:31:55;;;;;;;1.50;0.90;;;15.80;98.20;;;;;;5028803;28;20486;-74
2023/03/23 16:34:22;;;;;;;1.50;1.00;;;15.80;98.20;;;;;;5041434;28;20482;-76
2023/03/23 16:36:49;;;;;;;1.50;1.10;;;15.80;98.20;;;;;;5025420;28;20536;-73
2023/03/23 16:39:17;;;;;;;1.50;0.90;;;15.80;98.20;;;;;;5037148;28;20463;-73
2023/03/23 16:41:44;;;;;;;1.50;1.00;;;15.80;98.20;;;;;;5024741;28;20994;-73
2023/03/23 16:44:11;;;;;;;1.50;1.00;;;15.70;98.20;;;;;;5031320;28;20865;-75
2023/03/23 16:46:38;;;;;;;1.50;1.00;;;15.70;98.20;;;;;;5024883;28;20524;-73
2023/03/23 16:49:06;;;;;;;1.50;1.00;;;15.60;98.20;;;;;;5032389;28;20482;-74
2023/03/23 16:51:33;;;;;;;1.50;0.97;;;15.60;98.20;;;;;;5027487;28;20487;-75
2023/03/23 16:54:00;;;;;;;1.50;1.17;;;15.50;98.20;;;;;;5036171;28;20493;-73
2023/03/23 16:56:26;;;;;;;1.50;1.10;;;15.50;98.20;;;;;;5023707;28;20478;-73
2023/03/23 16:58:53;;;;;;;1.50;1.10;;;15.40;98.20;;;;;;5038806;28;20460;-74
2023/03/23 17:01:20;;;;;;;1.50;1.00;;;15.40;98.20;;;;;;5025634;28;20493;-73
2023/03/23 17:03:47;;;;;;;1.50;1.10;;;15.40;98.20;;;;;;5030974;28;20513;-73
2023/03/23 17:06:15;;;;;;;1.50;1.00;;;15.30;98.20;;;;;;5021780;28;20482;-73
2023/03/23 17:08:41;;;;;;;1.50;1.10;;;15.30;98.20;;;;;;5027760;28;20491;-73
2023/03/23 17:11:10;;;;;;;1.50;0.90;;;15.30;98.20;;;;;;5015199;28;20493;-73
2023/03/23 17:13:36;;;;;;;1.50;1.03;;;15.20;98.20;;;;;;5030067;28;20482;-73
2023/03/23 17:16:05;;;;;;;1.50;1.10;;;15.20;98.20;;;;;;5012449;28;20468;-73
2023/03/23 17:18:32;;;;;;;1.50;1.07;;;15.20;98.20;;;;;;5032774;28;20569;-73
2023/03/23 17:21:02;;;;;;;1.50;1.07;;;15.20;98.20;;;;;;5020802;28;20866;-73
2023/03/23 17:23:30;;;;;;;1.50;1.00;;;15.10;98.20;;;;;;5038592;28;20927;-74
2023/03/23 17:25:56;;;;;;;1.50;1.00;;;15.10;98.20;;;;;;5021068;28;20471;-74
2023/03/23 17:28:23;;;;;;;1.50;1.00;;;15.10;98.20;;;;;;5031010;28;20489;-74
2023/03/23 17:30:52;;;;;;;1.50;1.00;;;15.10;98.20;;;;;;5015474;28;20659;-73
2023/03/23 17:33:19;;;;;;;1.50;0.97;;;15.00;98.20;;;;;;5039791;28;20503;-77
2023/03/23 17:35:50;;;;;;;1.50;1.00;;;15.00;98.20;;;;;;5030862;28;20518;-74
2023/03/23 17:41:10;;;;;;;1.50;1.00;;;14.80;98.20;;;;;;5021982;28;20476;-74
2023/03/23 17:43:39;;;;;;;1.50;1.10;;;14.80;98.20;;;;;;5037108;28;20512;-75
2023/03/23 17:46:06;;;;;;;1.50;1.10;;;14.70;98.20;;;;;;5019530;28;21127;-74
2023/03/23 17:48:33;;;;;;;1.50;1.00;;;14.60;98.20;;;;;;5036401;28;20486;-77
2023/03/23 17:51:01;;;;;;;1.50;1.10;;;14.60;98.20;;;;;;5024290;28;21313;-75
2023/03/23 17:53:29;;;;;;;1.60;1.10;;;14.50;98.20;;;;;;5045858;28;20482;-74
2023/03/23 17:55:57;;;;;;;1.50;1.10;;;14.40;98.20;;;;;;5028867;28;20454;-73
2023/03/23 17:58:26;;;;;;;1.50;1.00;;;14.40;98.20;;;;;;5045294;28;20513;-79
2023/03/23 18:00:53;;;;;;;1.50;1.00;;;14.30;98.20;;;;;;5025188;28;20454;-75
2023/03/23 18:03:20;;;;;;;1.50;1.00;;;14.30;98.20;;;;;;5036172;28;20526;-73
2023/03/23 18:05:47;;;;;;;1.50;1.10;;;14.20;98.20;;;;;;5027926;28;20466;-73
2023/03/23 18:08:14;;;;;;;1.50;1.10;;;14.20;98.20;;;;;;5036243;28;20470;-73
2023/03/23 18:10:41;;;;;;;1.50;1.00;;;14.10;98.20;;;;;;5035951;28;20466;-74
2023/03/23 18:13:09;;;;;;;1.50;1.10;;;14.10;98.20;;;;;;5026181;28;20489;-73
2023/03/23 18:15:37;;;;;;;1.50;1.00;;;14.00;98.20;;;;;;5029215;28;20454;-74
2023/03/23 18:18:05;;;;;;;1.50;1.10;;;14.00;98.20;;;;;;5027889;28;21082;-74
2023/03/23 18:20:32;;;;;;;1.60;1.20;;;13.90;98.20;;;;;;5041714;28;20473;-75
2023/03/23 18:22:59;;;;;;;1.53;1.03;;;13.90;98.20;;;;;;5025235;28;20501;-73
2023/03/23 18:25:26;;;;;;;1.50;1.17;;;13.90;98.20;;;;;;5039981;28;20458;-73
2023/03/23 18:27:53;;;;;;;1.50;1.00;;;13.90;98.20;;;;;;5024464;28;20562;-73
2023/03/23 18:30:20;;;;;;;1.50;1.10;;;13.90;98.20;;;;;;5026911;28;20493;-73
2023/03/23 18:32:48;;;;;;;1.50;1.00;;;13.80;98.20;;;;;;5024387;28;21010;-73
2023/03/23 18:35:15;;;;;;;1.50;1.00;;;13.80;98.20;;;;;;5037804;28;20545;-74
2023/03/23 18:37:42;;;;;;;1.50;1.10;;;13.80;98.20;;;;;;5028553;28;20485;-74
2023/03/23 18:40:13;;;;;;;1.50;1.03;;;13.70;98.20;;;;;;5033879;28;20465;-72
2023/03/23 18:42:43;;;;;;;1.50;1.10;;;13.70;98.20;;;;;;5022321;28;20528;-72
2023/03/23 18:45:10;;;;;;;1.50;1.10;;;13.70;98.20;;;;;;5031805;28;21009;-71
2023/03/23 18:47:37;;;;;;;1.50;1.00;;;13.70;98.20;;;;;;5020599;28;20479;-72
2023/03/23 18:50:07;;;;;;;1.53;1.10;;;13.70;98.20;;;;;;5037869;28;20555;-72
2023/03/23 18:52:34;;;;;;;1.83;1.73;;;13.60;98.20;;;;;;5024102;28;20486;-71
2023/03/23 18:55:01;;;;;;;1.50;1.10;;;13.60;98.20;;;;;;5034872;28;20459;-73
2023/03/23 18:57:28;;;;;;;1.50;1.00;;;13.60;98.20;;;;;;5022774;28;20471;-73
2023/03/23 18:59:55;;;;;;;1.50;1.07;;;13.60;98.20;;;;;;5027715;28;20464;-72
2023/03/23 19:02:22;;;;;;;1.50;1.00;;;13.60;98.20;;;;;;5024399;28;20485;-72
2023/03/23 19:04:49;;;;;;;1.50;1.10;;;13.70;98.20;;;;;;5028230;28;20886;-72
2023/03/23 19:07:21;;;;;;;1.50;1.10;;;13.70;98.20;;;;;;5025293;28;20887;-71
2023/03/23 19:09:48;;;;;;;1.50;1.10;;;13.70;98.20;;;;;;5029002;28;20475;-71
2023/03/23 19:12:15;;;;;;;1.50;1.00;;;13.70;98.20;;;;;;5021799;28;20477;-71
2023/03/23 19:14:42;;;;;;;1.50;1.10;;;13.70;98.20;;;;;;5033340;28;21144;-72
2023/03/23 19:17:09;;;;;;;1.50;1.10;;;13.60;98.20;;;;;;5017449;28;20946;-72
2023/03/23 19:19:37;;;;;;;1.70;1.40;;;13.70;98.20;;;;;;5035412;28;20459;-71
2023/03/23 19:22:15;;;;;;;1.50;1.10;;;13.70;98.20;;;;;;5026730;28;20473;-72
2023/03/23 19:24:43;;;;;;;1.87;1.60;;;13.70;98.20;;;;;;5033841;28;20454;-71
2023/03/23 19:27:10;;;;;;;1.50;1.10;;;13.70;98.20;;;;;;5025161;28;20474;-73
2023/03/23 19:29:37;;;;;;;1.50;1.00;;;13.70;98.20;;;;;;5035777;28;20486;-73
2023/03/23 19:32:05;;;;;;;1.50;1.00;;;13.70;98.20;;;;;;5022770;28;20502;-73